createdAt,value
2023-02-23T00:02:08.554Z,99754.63
2023-02-23T00:04:36.577Z,99758.34
2023-02-23T00:07:06.336Z,99753.59
2023-02-23T00:09:36.784Z,99762.69
2023-02-23T00:12:09.720Z,99762.47
2023-02-23T00:14:38.362Z,99773.13
2023-02-23T00:17:14.848Z,99760.84
2023-02-23T00:19:46.077Z,99769.56
2023-02-23T00:22:13.621Z,99775.59
2023-02-23T00:24:43.069Z,99775.75
2023-02-23T00:27:17.628Z,99777.19
2023-02-23T00:29:49.434Z,99786.06
2023-02-23T00:32:20.906Z,99782.50
2023-02-23T00:34:49.885Z,99789.97
2023-02-23T00:37:19.427Z,99784.66
2023-02-23T00:39:49.462Z,99782.00
2023-02-23T00:42:17.032Z,99788.59
2023-02-23T00:44:44.558Z,99793.94
2023-02-23T00:47:12.121Z,99788.47
2023-02-23T00:49:39.581Z,99792.88
2023-02-23T00:52:07.137Z,99796.41
2023-02-23T00:54:34.664Z,99787.75
2023-02-23T00:57:02.242Z,99805.31
2023-02-23T00:59:29.822Z,99801.22
2023-02-23T01:01:57.712Z,99805.31
2023-02-23T01:04:25.219Z,99800.00
2023-02-23T01:06:56.532Z,99800.34
2023-02-23T01:09:28.483Z,99798.41
2023-02-23T01:11:57.239Z,99805.50
2023-02-23T01:14:25.207Z,99798.44
2023-02-23T01:16:52.703Z,99804.28
2023-02-23T01:19:22.755Z,99804.84
2023-02-23T01:21:50.595Z,99810.16
2023-02-23T01:24:20.442Z,99816.03
2023-02-23T01:26:48.074Z,99815.69
2023-02-23T01:29:18.296Z,99813.72
2023-02-23T01:31:48.979Z,99820.28
2023-02-23T01:34:21.872Z,99822.44
2023-02-23T01:36:49.718Z,99819.94
2023-02-23T01:39:20.750Z,99821.56
2023-02-23T01:41:52.639Z,99815.31
2023-02-23T01:44:23.079Z,99810.91
2023-02-23T01:46:50.705Z,99803.44
2023-02-23T01:49:27.826Z,99812.34
2023-02-23T01:52:01.486Z,99805.75
2023-02-23T01:54:33.570Z,99802.56
2023-02-23T01:57:03.613Z,99811.09
2023-02-23T01:59:41.534Z,99818.56
2023-02-23T02:02:09.298Z,99824.56
2023-02-23T02:04:44.809Z,99828.28
2023-02-23T02:07:16.023Z,99826.00
2023-02-23T02:10:05.044Z,99817.88
2023-02-23T02:12:33.909Z,99834.16
2023-02-23T02:15:04.291Z,99834.69
2023-02-23T02:17:34.799Z,99834.84
2023-02-23T02:20:28.952Z,99830.75
2023-02-23T02:23:34.067Z,99847.47
2023-02-23T02:26:16.032Z,99836.28
2023-02-23T02:29:14.404Z,99845.00
2023-02-23T02:32:21.502Z,99845.19
2023-02-23T02:34:55.607Z,99853.19
2023-02-23T02:38:01.838Z,99847.50
2023-02-23T02:40:36.420Z,99860.97
2023-02-23T02:44:02.417Z,99857.06
2023-02-23T02:46:37.191Z,99857.94
2023-02-23T02:49:26.764Z,99866.81
2023-02-23T02:52:16.492Z,99854.53
2023-02-23T02:54:49.536Z,99852.59
2023-02-23T02:57:24.384Z,99856.81
2023-02-23T03:00:11.056Z,99860.00
2023-02-23T03:03:00.512Z,99862.66
2023-02-23T03:06:09.370Z,99867.16
2023-02-23T03:09:20.874Z,99855.22
2023-02-23T03:12:25.715Z,99864.25
2023-02-23T03:15:32.921Z,99869.56
2023-02-23T03:18:29.599Z,99863.16
2023-02-23T03:21:26.951Z,99864.41
2023-02-23T03:24:21.963Z,99858.88
2023-02-23T03:27:21.079Z,99861.34
2023-02-23T03:30:30.584Z,99867.19
2023-02-23T03:33:24.637Z,99861.66
2023-02-23T03:36:20.206Z,99876.88
2023-02-23T03:39:20.920Z,99878.25
2023-02-23T03:42:10.922Z,99875.19
2023-02-23T03:45:01.638Z,99881.97
2023-02-23T03:47:52.482Z,99890.59
2023-02-23T03:50:58.534Z,99882.81
2023-02-23T03:53:54.512Z,99876.22
2023-02-23T03:56:44.902Z,99879.66
2023-02-23T03:59:36.184Z,99886.75
2023-02-23T04:02:25.298Z,99889.94
2023-02-23T04:05:16.337Z,99883.81
2023-02-23T04:08:06.340Z,99891.97
2023-02-23T04:10:54.118Z,99900.63
2023-02-23T04:13:26.962Z,99894.78
2023-02-23T04:15:59.054Z,99895.09
2023-02-23T04:18:29.229Z,99896.50
2023-02-23T04:20:58.248Z,99902.34
2023-02-23T04:23:27.257Z,99909.78
2023-02-23T04:25:55.946Z,99902.69
2023-02-23T04:28:25.473Z,99907.25
2023-02-23T04:30:53.496Z,99908.47
2023-02-23T04:33:22.322Z,99901.53
2023-02-23T04:35:49.951Z,99905.78
2023-02-23T04:38:17.413Z,99901.66
2023-02-23T04:40:45.548Z,99902.84
2023-02-23T04:43:13.523Z,99914.41
2023-02-23T04:45:41.775Z,99917.06
2023-02-23T04:48:09.237Z,99921.50
2023-02-23T04:50:37.410Z,99919.03
2023-02-23T04:53:13.931Z,99929.50
2023-02-23T04:55:42.377Z,99921.69
2023-02-23T04:58:13.853Z,99928.75
2023-02-23T05:00:48.561Z,99922.72
2023-02-23T05:03:17.648Z,99922.84
2023-02-23T05:05:45.505Z,99930.00
2023-02-23T05:08:13.022Z,99936.94
2023-02-23T05:10:40.671Z,99931.09
2023-02-23T05:13:08.168Z,99937.06
2023-02-23T05:15:35.722Z,99939.78
2023-02-23T05:18:03.300Z,99939.53
2023-02-23T05:20:30.906Z,99943.25
2023-02-23T05:22:58.726Z,99936.75
2023-02-23T05:25:26.230Z,99943.03
2023-02-23T05:27:53.769Z,99946.66
2023-02-23T05:30:21.270Z,99956.22
2023-02-23T05:32:49.498Z,99947.75
2023-02-23T05:35:17.050Z,99946.53
2023-02-23T05:37:44.926Z,99946.22
2023-02-23T05:40:13.205Z,99954.94
2023-02-23T05:42:40.746Z,99943.13
2023-02-23T05:45:08.522Z,99956.69
2023-02-23T05:47:38.823Z,99948.91
2023-02-23T05:50:08.006Z,99949.13
2023-02-23T05:52:41.725Z,99940.97
2023-02-23T05:55:11.814Z,99944.72
2023-02-23T05:57:41.302Z,99958.41
2023-02-23T06:00:10.011Z,99952.63
2023-02-23T06:02:37.650Z,99958.66
2023-02-23T06:05:06.194Z,99957.56
2023-02-23T06:07:33.614Z,99960.00
2023-02-23T06:10:02.467Z,99956.72
2023-02-23T06:12:30.605Z,99963.56
2023-02-23T06:14:58.278Z,99961.53
2023-02-23T06:17:25.918Z,99967.56
2023-02-23T06:19:53.406Z,99965.53
2023-02-23T06:22:20.942Z,99962.94
2023-02-23T06:24:50.264Z,99958.44
2023-02-23T06:27:17.980Z,99963.69
2023-02-23T06:29:45.455Z,99962.81
2023-02-23T06:32:12.959Z,99947.31
2023-02-23T06:34:46.763Z,99941.38
2023-02-23T06:37:14.425Z,99953.25
2023-02-23T06:39:41.903Z,99948.16
2023-02-23T06:42:09.410Z,99960.53
2023-02-23T06:44:37.319Z,99960.94
2023-02-23T06:47:06.218Z,99970.75
2023-02-23T06:49:33.875Z,99955.97
2023-02-23T06:52:01.415Z,99955.59
2023-02-23T06:54:28.938Z,99957.16
2023-02-23T06:56:56.797Z,99956.56
2023-02-23T06:59:24.619Z,99956.47
2023-02-23T07:01:52.464Z,99966.88
2023-02-23T07:04:20.136Z,99962.75
2023-02-23T07:06:47.927Z,99950.06
2023-02-23T07:09:15.705Z,99951.59
2023-02-23T07:11:44.864Z,99946.66
2023-02-23T07:14:15.287Z,99964.78
2023-02-23T07:16:49.045Z,99961.31
2023-02-23T07:19:16.540Z,99963.00
2023-02-23T07:21:44.307Z,99969.19
2023-02-23T07:24:11.858Z,99972.59
2023-02-23T07:26:41.064Z,99974.72
2023-02-23T07:29:08.554Z,99983.16
2023-02-23T07:31:37.918Z,99977.28
2023-02-23T07:34:05.964Z,99978.59
2023-02-23T07:36:33.421Z,99981.34
2023-02-23T07:39:01.074Z,99987.50
2023-02-23T07:41:28.695Z,99990.19
2023-02-23T07:43:56.189Z,99988.91
2023-02-23T07:46:23.706Z,99991.22
2023-02-23T07:48:51.217Z,99990.44
2023-02-23T07:51:19.322Z,99987.84
2023-02-23T07:53:47.179Z,99978.16
2023-02-23T07:56:14.835Z,99981.06
2023-02-23T07:58:44.037Z,99977.53
2023-02-23T08:01:12.964Z,99969.97
2023-02-23T08:03:40.694Z,99980.13
2023-02-23T08:06:09.488Z,99969.66
2023-02-23T08:08:36.998Z,99982.78
2023-02-23T08:11:05.444Z,99974.47
2023-02-23T08:13:32.986Z,99960.47
2023-02-23T08:16:00.706Z,99972.78
2023-02-23T08:18:28.323Z,99975.03
2023-02-23T08:21:04.091Z,99957.94
2023-02-23T08:23:35.671Z,99954.53
2023-02-23T08:26:03.815Z,99965.53
2023-02-23T08:28:31.737Z,99956.44
2023-02-23T08:30:59.679Z,99958.16
2023-02-23T08:33:27.267Z,99965.94
2023-02-23T08:35:54.945Z,99958.81
2023-02-23T08:38:22.414Z,99954.50
2023-02-23T08:40:49.961Z,99955.25
2023-02-23T08:43:17.562Z,99947.06
2023-02-23T08:45:45.135Z,99952.47
2023-02-23T08:48:12.685Z,99947.53
2023-02-23T08:50:40.216Z,99957.25
2023-02-23T08:53:07.838Z,99954.56
2023-02-23T08:55:35.782Z,99949.19
2023-02-23T08:58:03.300Z,99954.38
2023-02-23T09:00:31.512Z,99952.53
2023-02-23T09:02:58.991Z,99949.91
2023-02-23T09:05:26.725Z,99950.50
2023-02-23T09:07:54.400Z,99953.94
2023-02-23T09:10:24.998Z,99940.25
2023-02-23T09:12:53.025Z,99940.88
2023-02-23T09:15:21.047Z,99932.22
2023-02-23T09:17:48.940Z,99926.28
2023-02-23T09:20:17.553Z,99931.22
2023-02-23T09:22:48.755Z,99933.19
2023-02-23T09:25:19.316Z,99934.13
2023-02-23T09:27:47.046Z,99930.38
2023-02-23T09:30:17.893Z,99927.66
2023-02-23T09:32:56.563Z,99923.31
2023-02-23T09:35:24.737Z,99920.00
2023-02-23T09:37:55.007Z,99923.91
2023-02-23T09:40:27.379Z,99920.94
2023-02-23T09:43:07.774Z,99919.16
2023-02-23T09:46:24.621Z,99912.63
2023-02-23T09:48:53.239Z,99914.09
2023-02-23T09:51:23.632Z,99918.69
2023-02-23T09:53:57.059Z,99919.25
2023-02-23T09:56:52.859Z,99915.03
2023-02-23T09:59:23.124Z,99910.50
2023-02-23T10:01:58.870Z,99909.31
2023-02-23T10:04:49.198Z,99901.84
2023-02-23T10:07:42.003Z,99889.19
2023-02-23T10:10:40.625Z,99887.16
2023-02-23T10:13:27.634Z,99882.63
2023-02-23T10:16:24.117Z,99899.41
2023-02-23T10:19:00.542Z,99897.00
2023-02-23T10:21:36.256Z,99896.47
2023-02-23T10:24:27.596Z,99898.59
2023-02-23T10:27:01.167Z,99891.31
2023-02-23T10:29:37.354Z,99890.44
2023-02-23T10:32:19.560Z,99891.59
2023-02-23T10:34:51.181Z,99892.47
2023-02-23T10:37:18.866Z,99891.84
2023-02-23T10:39:49.290Z,99883.50
2023-02-23T10:42:22.753Z,99886.34
2023-02-23T10:44:50.735Z,99896.81
2023-02-23T10:47:22.883Z,99896.00
2023-02-23T10:49:54.165Z,99892.56
2023-02-23T10:52:21.689Z,99887.41
2023-02-23T10:54:53.285Z,99891.63
2023-02-23T10:57:34.387Z,99896.81
2023-02-23T11:00:27.942Z,99894.28
2023-02-23T11:02:58.400Z,99882.31
2023-02-23T11:05:43.481Z,99874.91
2023-02-23T11:08:29.407Z,99877.56
2023-02-23T11:11:03.976Z,99872.97
2023-02-23T11:13:36.320Z,99880.69
2023-02-23T11:16:14.449Z,99873.13
2023-02-23T11:18:50.591Z,99867.09
2023-02-23T11:21:35.498Z,99864.59
2023-02-23T11:24:26.693Z,99859.53
2023-02-23T11:27:00.463Z,99863.88
2023-02-23T11:29:40.262Z,99863.88
2023-02-23T11:32:13.719Z,99857.78
2023-02-23T11:34:43.554Z,99872.56
2023-02-23T11:37:15.195Z,99871.69
2023-02-23T11:39:58.264Z,99870.78
2023-02-23T11:42:33.803Z,99874.31
2023-02-23T11:45:20.707Z,99880.28
2023-02-23T11:47:50.917Z,99873.47
2023-02-23T11:50:38.566Z,99871.16
2023-02-23T11:53:15.543Z,99874.34
2023-02-23T11:55:54.738Z,99858.41
2023-02-23T11:58:22.838Z,99860.19
2023-02-23T12:01:02.100Z,99863.81
2023-02-23T12:03:33.397Z,99850.78
2023-02-23T12:06:02.474Z,99856.06
2023-02-23T12:08:45.878Z,99864.69
2023-02-23T12:11:20.757Z,99862.16
2023-02-23T12:14:02.585Z,99863.88
2023-02-23T12:16:39.063Z,99855.19
2023-02-23T12:19:21.894Z,99858.66
2023-02-23T12:22:23.993Z,99853.31
2023-02-23T12:25:02.940Z,99856.94
2023-02-23T12:27:50.539Z,99856.84
2023-02-23T12:30:43.875Z,99852.34
2023-02-23T12:33:48.990Z,99867.19
2023-02-23T12:36:51.713Z,99871.97
2023-02-23T12:39:31.509Z,99876.78
2023-02-23T12:42:13.085Z,99873.16
2023-02-23T12:44:53.854Z,99900.00
2023-02-23T12:47:54.898Z,99893.81
2023-02-23T12:50:59.826Z,99906.81
2023-02-23T12:53:45.486Z,99917.66
2023-02-23T12:56:35.555Z,99920.94
2023-02-23T12:59:13.552Z,99906.69
2023-02-23T13:01:59.651Z,99924.56
2023-02-23T13:04:34.294Z,99927.09
2023-02-23T13:07:21.084Z,99925.94
2023-02-23T13:09:57.601Z,99922.38
2023-02-23T13:12:52.988Z,99930.19
2023-02-23T13:15:35.371Z,99929.16
2023-02-23T13:18:18.032Z,99929.28
2023-02-23T13:20:52.075Z,99939.13
2023-02-23T13:24:01.471Z,99930.78
2023-02-23T13:26:46.935Z,99937.03
2023-02-23T13:29:36.775Z,99938.44
2023-02-23T13:32:06.370Z,99932.25
2023-02-23T13:34:42.503Z,99936.69
2023-02-23T13:37:14.282Z,99948.22
2023-02-23T13:40:12.147Z,99941.28
2023-02-23T13:43:17.850Z,99946.50
2023-02-23T13:46:00.605Z,99937.00
2023-02-23T13:48:55.302Z,99940.31
2023-02-23T13:51:35.576Z,99950.13
2023-02-23T13:54:24.382Z,99935.19
2023-02-23T13:57:01.424Z,99943.38
2023-02-23T13:59:33.486Z,99940.19
2023-02-23T14:02:16.953Z,99943.16
2023-02-23T14:04:47.376Z,99939.34
2023-02-23T14:07:29.169Z,99938.78
2023-02-23T14:10:00.959Z,99944.38
2023-02-23T14:12:34.567Z,99938.78
2023-02-23T14:15:37.936Z,99936.44
2023-02-23T14:18:30.500Z,99934.84
2023-02-23T14:21:03.678Z,99938.25
2023-02-23T14:23:57.504Z,99933.81
2023-02-23T14:26:28.005Z,99934.72
2023-02-23T14:29:17.627Z,99933.41
2023-02-23T14:31:55.472Z,99928.22
2023-02-23T14:34:23.616Z,99929.72
2023-02-23T14:36:56.171Z,99924.13
2023-02-23T14:39:29.062Z,99915.13
2023-02-23T14:42:00.078Z,99923.25
2023-02-23T14:44:36.697Z,99918.38
2023-02-23T14:47:07.776Z,99919.09
2023-02-23T14:49:59.578Z,99909.06
2023-02-23T14:52:30.392Z,99917.63
2023-02-23T14:55:13.432Z,99922.31
2023-02-23T14:57:43.251Z,99916.13
2023-02-23T15:00:32.699Z,99908.16
2023-02-23T15:03:06.020Z,99913.16
2023-02-23T15:05:41.091Z,99916.69
2023-02-23T15:08:13.423Z,99913.56
2023-02-23T15:10:43.588Z,99915.91
2023-02-23T15:13:30.611Z,99915.19
2023-02-23T15:16:13.918Z,99916.38
2023-02-23T15:18:43.779Z,99911.31
2023-02-23T15:21:15.803Z,99927.94
2023-02-23T15:23:49.726Z,99918.22
2023-02-23T15:26:24.775Z,99913.78
2023-02-23T15:28:52.735Z,99914.97
2023-02-23T15:31:20.576Z,99918.22
2023-02-23T15:33:50.896Z,99918.47
2023-02-23T15:36:27.553Z,99919.75
2023-02-23T15:38:57.231Z,99910.59
2023-02-23T15:41:36.754Z,99912.22
2023-02-23T15:44:32.247Z,99911.78
2023-02-23T15:47:06.289Z,99922.06
2023-02-23T15:49:42.193Z,99913.31
2023-02-23T15:52:17.904Z,99917.91
2023-02-23T15:54:58.328Z,99914.19
2023-02-23T15:57:49.729Z,99899.88
2023-02-23T16:00:32.463Z,99912.25
2023-02-23T16:03:05.062Z,99901.38
2023-02-23T16:05:46.599Z,99896.47
2023-02-23T16:08:25.495Z,99902.41
2023-02-23T16:11:12.085Z,99900.78
2023-02-23T16:13:46.903Z,99899.00
2023-02-23T16:16:20.862Z,99897.38
2023-02-23T16:18:54.021Z,99894.16
2023-02-23T16:21:25.448Z,99888.13
2023-02-23T16:23:54.923Z,99885.19
2023-02-23T16:26:31.856Z,99890.66
2023-02-23T16:29:02.203Z,99890.81
2023-02-23T16:31:46.852Z,99874.75
2023-02-23T16:34:35.765Z,99879.97
2023-02-23T16:37:15.818Z,99870.47
2023-02-23T16:39:44.204Z,99869.91
2023-02-23T16:42:33.292Z,99872.16
2023-02-23T16:45:02.066Z,99875.09
2023-02-23T16:47:36.591Z,99871.13
2023-02-23T16:50:20.782Z,99871.59
2023-02-23T16:52:54.150Z,99871.44
2023-02-23T16:55:27.487Z,99869.38
2023-02-23T16:57:59.434Z,99858.75
2023-02-23T17:00:32.766Z,99856.13
2023-02-23T17:03:01.112Z,99862.47
2023-02-23T17:05:30.361Z,99865.13
2023-02-23T17:07:59.078Z,99868.38
2023-02-23T17:10:32.571Z,99859.78
2023-02-23T17:13:06.641Z,99875.88
2023-02-23T17:15:56.261Z,99876.50
2023-02-23T17:18:29.928Z,99869.81
2023-02-23T17:20:59.805Z,99878.66
2023-02-23T17:23:48.240Z,99878.81
2023-02-23T17:26:17.255Z,99869.97
2023-02-23T17:28:45.255Z,99878.22
2023-02-23T17:31:13.729Z,99867.63
2023-02-23T17:33:45.584Z,99867.31
2023-02-23T17:36:15.725Z,99857.44
2023-02-23T17:38:45.046Z,99863.31
2023-02-23T17:41:18.153Z,99860.22
2023-02-23T17:43:46.583Z,99866.50
2023-02-23T17:46:19.559Z,99860.47
2023-02-23T17:48:48.689Z,99861.34
2023-02-23T17:51:17.041Z,99853.69
2023-02-23T17:53:44.701Z,99856.34
2023-02-23T17:56:12.354Z,99863.28
2023-02-23T17:58:40.473Z,99853.06
2023-02-23T18:01:08.685Z,99857.69
2023-02-23T18:03:37.380Z,99861.50
2023-02-23T18:06:11.086Z,99861.53
2023-02-23T18:08:40.927Z,99855.22
2023-02-23T18:11:09.059Z,99846.25
2023-02-23T18:13:37.108Z,99843.13
2023-02-23T18:16:09.422Z,99847.97
2023-02-23T18:18:44.409Z,99840.75
2023-02-23T18:21:14.513Z,99852.56
2023-02-23T18:23:43.028Z,99837.22
2023-02-23T18:26:17.353Z,99840.31
2023-02-23T18:28:46.427Z,99842.38
2023-02-23T18:31:20.501Z,99830.16
2023-02-23T18:33:55.414Z,99824.53
2023-02-23T18:36:26.355Z,99823.66
2023-02-23T18:38:55.741Z,99814.81
2023-02-23T18:41:24.041Z,99830.16
2023-02-23T18:43:52.673Z,99830.69
2023-02-23T18:46:22.713Z,99823.03
2023-02-23T18:48:55.360Z,99812.41
2023-02-23T18:51:23.981Z,99822.03
2023-02-23T18:53:53.163Z,99825.41
2023-02-23T18:56:28.314Z,99812.00
2023-02-23T18:58:59.890Z,99807.16
2023-02-23T19:01:30.207Z,99811.88
2023-02-23T19:04:00.632Z,99810.72
2023-02-23T19:06:30.806Z,99814.28
2023-02-23T19:09:00.185Z,99818.69
2023-02-23T19:11:32.184Z,99806.75
2023-02-23T19:14:03.783Z,99808.19
2023-02-23T19:16:34.991Z,99804.81
2023-02-23T19:19:04.765Z,99799.38
2023-02-23T19:21:32.620Z,99806.00
2023-02-23T19:24:02.461Z,99809.38
2023-02-23T19:26:31.059Z,99801.13
2023-02-23T19:29:07.714Z,99797.75
2023-02-23T19:31:35.340Z,99801.88
2023-02-23T19:34:05.166Z,99793.16
2023-02-23T19:36:33.883Z,99789.78
2023-02-23T19:39:11.133Z,99788.00
2023-02-23T19:41:40.279Z,99791.53
2023-02-23T19:44:08.926Z,99787.75
2023-02-23T19:46:37.916Z,99785.09
2023-02-23T19:49:06.140Z,99784.34
2023-02-23T19:51:33.741Z,99786.41
2023-02-23T19:54:01.525Z,99787.00
2023-02-23T19:56:29.747Z,99775.09
2023-02-23T19:58:58.103Z,99782.88
2023-02-23T20:01:30.259Z,99759.75
2023-02-23T20:04:02.265Z,99775.66
2023-02-23T20:06:34.823Z,99770.25
2023-02-23T20:09:05.948Z,99773.63
2023-02-23T20:11:33.882Z,99777.16
2023-02-23T20:14:03.405Z,99759.94
2023-02-23T20:16:37.438Z,99764.22
2023-02-23T20:19:06.676Z,99749.94
2023-02-23T20:21:37.113Z,99743.44
2023-02-23T20:24:05.679Z,99749.06
2023-02-23T20:26:37.348Z,99742.28
2023-02-23T20:29:10.856Z,99740.34
2023-02-23T20:31:42.059Z,99736.41
2023-02-23T20:34:11.236Z,99738.78
2023-02-23T20:36:41.122Z,99735.53
2023-02-23T20:39:11.104Z,99737.84
2023-02-23T20:41:43.473Z,99739.34
2023-02-23T20:44:12.635Z,99745.09
2023-02-23T20:46:40.865Z,99736.56
2023-02-23T20:49:11.827Z,99739.78
2023-02-23T20:51:44.792Z,99728.16
2023-02-23T20:54:13.514Z,99727.13
2023-02-23T20:56:42.511Z,99735.06
2023-02-23T20:59:11.423Z,99725.78
2023-02-23T21:01:44.337Z,99725.78
2023-02-23T21:04:13.249Z,99727.41
2023-02-23T21:06:40.912Z,99719.47
2023-02-23T21:09:12.876Z,99715.03
2023-02-23T21:11:40.440Z,99721.81
2023-02-23T21:14:08.534Z,99719.03
2023-02-23T21:16:40.916Z,99720.66
2023-02-23T21:19:10.418Z,99718.28
2023-02-23T21:21:40.278Z,99708.28
2023-02-23T21:24:09.553Z,99709.28
2023-02-23T21:26:37.275Z,99717.41
2023-02-23T21:29:11.868Z,99702.38
2023-02-23T21:31:39.818Z,99701.34
2023-02-23T21:34:08.533Z,99707.69
2023-02-23T21:36:36.232Z,99693.56
2023-02-23T21:39:04.618Z,99690.16
2023-02-23T21:41:34.205Z,99692.94
2023-02-23T21:44:02.438Z,99688.22
2023-02-23T21:46:29.960Z,99678.06
2023-02-23T21:48:57.888Z,99685.88
2023-02-23T21:51:26.164Z,99691.16
2023-02-23T21:53:58.102Z,99691.31
2023-02-23T21:56:25.683Z,99693.81
2023-02-23T21:58:58.082Z,99695.44
2023-02-23T22:01:29.240Z,99683.78
2023-02-23T22:03:58.018Z,99679.38
2023-02-23T22:06:28.807Z,99690.75
2023-02-23T22:08:57.365Z,99676.41
2023-02-23T22:11:27.620Z,99680.53
2023-02-23T22:14:01.061Z,99668.00
2023-02-23T22:16:31.892Z,99671.09
2023-02-23T22:19:03.887Z,99666.22
2023-02-23T22:21:33.518Z,99659.31
2023-02-23T22:24:05.506Z,99646.19
2023-02-23T22:26:34.668Z,99644.13
2023-02-23T22:29:02.202Z,99655.47
2023-02-23T22:31:29.854Z,99651.19
2023-02-23T22:33:57.514Z,99644.09
2023-02-23T22:36:25.362Z,99641.59
2023-02-23T22:38:52.865Z,99637.47
2023-02-23T22:41:20.801Z,99643.66
2023-02-23T22:43:48.398Z,99641.16
2023-02-23T22:46:17.233Z,99641.34
2023-02-23T22:48:45.610Z,99628.97
2023-02-23T22:51:15.993Z,99637.38
2023-02-23T22:53:43.997Z,99633.69
2023-02-23T22:56:12.094Z,99633.81
2023-02-23T22:58:42.210Z,99621.75
2023-02-23T23:01:11.709Z,99608.78
2023-02-23T23:03:39.775Z,99607.47
2023-02-23T23:06:13.058Z,99610.56
2023-02-23T23:08:42.145Z,99611.59
2023-02-23T23:11:31.645Z,99604.47
2023-02-23T23:14:03.197Z,99598.00
2023-02-23T23:16:33.690Z,99590.03
2023-02-23T23:19:04.567Z,99579.59
2023-02-23T23:21:34.434Z,99589.94
2023-02-23T23:24:07.332Z,99585.19
2023-02-23T23:26:39.837Z,99561.63
2023-02-23T23:29:11.655Z,99570.75
2023-02-23T23:31:41.228Z,99567.50
2023-02-23T23:34:10.725Z,99566.88
2023-02-23T23:36:46.302Z,99557.91
2023-02-23T23:39:16.423Z,99556.16
2023-02-23T23:41:50.873Z,99537.28
2023-02-23T23:44:21.624Z,99544.94
2023-02-23T23:46:53.165Z,99559.53
2023-02-23T23:49:23.012Z,99541.84
2023-02-23T23:51:56.295Z,99549.78
2023-02-23T23:54:27.173Z,99535.91
2023-02-23T23:56:54.853Z,99532.81
2023-02-23T23:59:23.927Z,99537.50
